MMVR/VER METAR and TAF weather

Enter ICAO airport designator
Station Type Date Time Source
MMVR METAR 2022/01/18 04:43 UTC NOAA

MMVR 180443Z E00000KT 7SM SCT030 SCT070 18/16 A3014 RMK 8/530 HZY


Station Type Date Time Source
MMVR Decoded METAR 2022/01/18 04:43 UTC NOAA

Veracruz / Las Bajadas / General Heriberto Jara, Mexico (MMVR) 19-09N 096-11W
Jan 17, 2022 - 11:43 PM EST / 2022.01.18 0443 UTC
Visibility: 7 mile(s):0
Sky conditions: partly cloudy
Temperature: 64 F (18 C)
Dew Point: 60 F (16 C)
Relative Humidity: 88%
Pressure (altimeter): 30.14 in. Hg (1020 hPa)
ob: MMVR 180443Z E00000KT 7SM SCT030 SCT070 18/16 A3014 RMK 8/530 HZY
cycle: 4

Station Type Date Time Source
MMVR TAF 2022/01/18 06:37 UTC NOAA

TAF MMVR 180430Z 1806/1906 00000KT P6SM SCT030 TX25/1820Z TN16/1812Z
TEMPO 1811/1815 3SM BR HZ SCT010
FM181800 16008KT P6SM SCT015 BKN080 BKN250
FM190500 00000KT P6SM SCT015 SCT080

Example: see airport list